sensor_id;sensor_type;location;lat;lon;timestamp;pressure;altitude;pressure_sealevel;temperature;humidity
4024;BME280;2026;51.002;13.668;2022-12-18T00:03:42;100611.97;;;-8.84;74.64
4024;BME280;2026;51.002;13.668;2022-12-18T00:08:48;100622.31;;;-8.90;74.21
4024;BME280;2026;51.002;13.668;2022-12-18T00:13:53;100635.53;;;-9.07;75.62
4024;BME280;2026;51.002;13.668;2022-12-18T00:18:57;100632.72;;;-9.26;75.40
4024;BME280;2026;51.002;13.668;2022-12-18T00:24:00;100638.81;;;-9.03;74.64
4024;BME280;2026;51.002;13.668;2022-12-18T00:29:06;100627.72;;;-9.29;75.12
4024;BME280;2026;51.002;13.668;2022-12-18T00:34:11;100632.09;;;-9.35;75.43
4024;BME280;2026;51.002;13.668;2022-12-18T00:39:14;100639.28;;;-9.19;74.90
4024;BME280;2026;51.002;13.668;2022-12-18T00:44:20;100648.94;;;-9.30;74.71
4024;BME280;2026;51.002;13.668;2022-12-18T00:49:23;100633.59;;;-9.27;74.50
4024;BME280;2026;51.002;13.668;2022-12-18T00:54:26;100651.66;;;-9.67;76.23
4024;BME280;2026;51.002;13.668;2022-12-18T00:59:30;100645.19;;;-9.47;77.24
4024;BME280;2026;51.002;13.668;2022-12-18T01:04:34;100663.50;;;-9.37;75.03
4024;BME280;2026;51.002;13.668;2022-12-18T01:09:37;100661.72;;;-9.64;75.89
4024;BME280;2026;51.002;13.668;2022-12-18T01:14:41;100674.56;;;-9.40;75.43
4024;BME280;2026;51.002;13.668;2022-12-18T01:19:44;100673.94;;;-9.45;75.41
4024;BME280;2026;51.002;13.668;2022-12-18T01:24:48;100663.06;;;-9.50;75.18
4024;BME280;2026;51.002;13.668;2022-12-18T01:29:52;100668.56;;;-9.66;74.83
4024;BME280;2026;51.002;13.668;2022-12-18T01:34:55;100675.44;;;-9.71;74.98
4024;BME280;2026;51.002;13.668;2022-12-18T01:39:58;100666.72;;;-9.61;74.69
4024;BME280;2026;51.002;13.668;2022-12-18T01:50:24;100662.72;;;-10.01;75.16
4024;BME280;2026;51.002;13.668;2022-12-18T01:55:30;100661.09;;;-9.72;75.21
4024;BME280;2026;51.002;13.668;2022-12-18T02:00:36;100682.66;;;-9.87;75.10
4024;BME280;2026;51.002;13.668;2022-12-18T02:05:44;100674.75;;;-9.76;74.88
4024;BME280;2026;51.002;13.668;2022-12-18T02:10:58;100681.38;;;-9.70;73.81
4024;BME280;2026;51.002;13.668;2022-12-18T02:16:12;100663.69;;;-10.07;75.45
4024;BME280;2026;51.002;13.668;2022-12-18T02:21:25;100669.47;;;-10.00;75.44
4024;BME280;2026;51.002;13.668;2022-12-18T02:26:35;100678.25;;;-10.13;75.24
4024;BME280;2026;51.002;13.668;2022-12-18T02:31:43;100687.34;;;-10.05;75.16
4024;BME280;2026;51.002;13.668;2022-12-18T02:36:49;100692.53;;;-10.09;74.97
4024;BME280;2026;51.002;13.668;2022-12-18T02:41:56;100682.94;;;-9.98;74.41
4024;BME280;2026;51.002;13.668;2022-12-18T02:47:00;100684.91;;;-10.44;76.12
4024;BME280;2026;51.002;13.668;2022-12-18T02:52:08;100687.78;;;-10.23;76.25
4024;BME280;2026;51.002;13.668;2022-12-18T02:57:20;100690.91;;;-10.12;74.86
4024;BME280;2026;51.002;13.668;2022-12-18T03:02:30;100674.19;;;-10.21;75.02
4024;BME280;2026;51.002;13.668;2022-12-18T03:07:40;100691.47;;;-10.02;74.43
4024;BME280;2026;51.002;13.668;2022-12-18T03:12:52;100692.34;;;-10.03;74.44
4024;BME280;2026;51.002;13.668;2022-12-18T03:17:59;100690.78;;;-10.07;74.56
4024;BME280;2026;51.002;13.668;2022-12-18T03:23:09;100693.38;;;-10.10;75.17
4024;BME280;2026;51.002;13.668;2022-12-18T03:28:22;100693.94;;;-10.32;74.93
4024;BME280;2026;51.002;13.668;2022-12-18T03:33:37;100699.75;;;-10.28;74.64
4024;BME280;2026;51.002;13.668;2022-12-18T03:38:42;100697.66;;;-10.49;75.34
4024;BME280;2026;51.002;13.668;2022-12-18T03:43:51;100698.44;;;-10.45;74.72
4024;BME280;2026;51.002;13.668;2022-12-18T03:48:59;100708.25;;;-10.31;74.87
4024;BME280;2026;51.002;13.668;2022-12-18T03:54:08;100712.03;;;-10.48;75.09
4024;BME280;2026;51.002;13.668;2022-12-18T03:59:21;100703.09;;;-10.64;75.12
4024;BME280;2026;51.002;13.668;2022-12-18T04:04:28;100717.91;;;-10.83;76.30
4024;BME280;2026;51.002;13.668;2022-12-18T04:09:36;100718.03;;;-10.52;75.23
4024;BME280;2026;51.002;13.668;2022-12-18T04:14:44;100726.19;;;-10.77;75.61
4024;BME280;2026;51.002;13.668;2022-12-18T04:19:47;100735.53;;;-10.79;75.37
4024;BME280;2026;51.002;13.668;2022-12-18T04:24:51;100726.63;;;-10.59;74.07
4024;BME280;2026;51.002;13.668;2022-12-18T04:30:06;100729.59;;;-10.78;74.58
4024;BME280;2026;51.002;13.668;2022-12-18T04:35:09;100728.19;;;-10.91;75.29
4024;BME280;2026;51.002;13.668;2022-12-18T04:40:18;100728.53;;;-10.69;74.50
4024;BME280;2026;51.002;13.668;2022-12-18T04:45:24;100737.22;;;-10.79;74.71
4024;BME280;2026;51.002;13.668;2022-12-18T04:50:27;100749.78;;;-10.75;74.65
4024;BME280;2026;51.002;13.668;2022-12-18T04:55:30;100738.84;;;-10.75;74.82
4024;BME280;2026;51.002;13.668;2022-12-18T05:00:34;100734.22;;;-10.99;75.25
4024;BME280;2026;51.002;13.668;2022-12-18T05:05:37;100736.66;;;-10.94;76.25
4024;BME280;2026;51.002;13.668;2022-12-18T05:10:40;100740.75;;;-10.87;75.06
4024;BME280;2026;51.002;13.668;2022-12-18T05:15:51;100739.25;;;-10.95;74.55
4024;BME280;2026;51.002;13.668;2022-12-18T05:20:54;100746.03;;;-10.98;75.41
4024;BME280;2026;51.002;13.668;2022-12-18T05:25:58;100749.41;;;-10.97;75.36
4024;BME280;2026;51.002;13.668;2022-12-18T05:31:04;100756.16;;;-10.98;74.43
4024;BME280;2026;51.002;13.668;2022-12-18T05:36:09;100739.59;;;-11.11;74.91
4024;BME280;2026;51.002;13.668;2022-12-18T05:41:12;100743.03;;;-11.15;75.32
4024;BME280;2026;51.002;13.668;2022-12-18T05:46:17;100741.03;;;-11.01;74.40
4024;BME280;2026;51.002;13.668;2022-12-18T05:51:21;100745.56;;;-11.14;74.69
4024;BME280;2026;51.002;13.668;2022-12-18T05:56:24;100744.00;;;-11.21;75.40
4024;BME280;2026;51.002;13.668;2022-12-18T06:01:29;100753.84;;;-11.07;75.25
4024;BME280;2026;51.002;13.668;2022-12-18T06:06:33;100752.44;;;-11.20;74.39
4024;BME280;2026;51.002;13.668;2022-12-18T06:11:37;100757.75;;;-11.34;75.12
4024;BME280;2026;51.002;13.668;2022-12-18T06:16:41;100756.66;;;-11.21;74.32
4024;BME280;2026;51.002;13.668;2022-12-18T06:21:44;100764.34;;;-11.26;74.02
4024;BME280;2026;51.002;13.668;2022-12-18T06:26:47;100781.91;;;-11.63;74.97
4024;BME280;2026;51.002;13.668;2022-12-18T06:31:51;100776.44;;;-11.40;74.91
4024;BME280;2026;51.002;13.668;2022-12-18T06:36:54;100779.88;;;-11.44;73.92
4024;BME280;2026;51.002;13.668;2022-12-18T06:41:57;100771.59;;;-11.54;73.75
4024;BME280;2026;51.002;13.668;2022-12-18T06:47:02;100776.06;;;-11.67;75.77
4024;BME280;2026;51.002;13.668;2022-12-18T06:52:05;100786.59;;;-11.92;75.08
4024;BME280;2026;51.002;13.668;2022-12-18T06:57:08;100793.84;;;-11.72;74.89
4024;BME280;2026;51.002;13.668;2022-12-18T07:02:12;100800.44;;;-11.61;74.55
4024;BME280;2026;51.002;13.668;2022-12-18T07:07:15;100807.56;;;-11.35;73.39
4024;BME280;2026;51.002;13.668;2022-12-18T07:12:18;100809.63;;;-11.56;73.18
4024;BME280;2026;51.002;13.668;2022-12-18T07:17:23;100801.78;;;-11.42;73.95
4024;BME280;2026;51.002;13.668;2022-12-18T07:22:26;100807.94;;;-11.57;73.80
4024;BME280;2026;51.002;13.668;2022-12-18T07:27:28;100800.91;;;-11.41;73.12
4024;BME280;2026;51.002;13.668;2022-12-18T07:32:33;100816.06;;;-11.39;73.18
4024;BME280;2026;51.002;13.668;2022-12-18T07:37:36;100831.00;;;-11.75;75.00
4024;BME280;2026;51.002;13.668;2022-12-18T07:42:39;100823.59;;;-11.36;74.60
4024;BME280;2026;51.002;13.668;2022-12-18T07:47:43;100829.31;;;-11.73;75.24
4024;BME280;2026;51.002;13.668;2022-12-18T07:52:48;100837.00;;;-11.29;75.03
4024;BME280;2026;51.002;13.668;2022-12-18T07:57:51;100840.50;;;-11.36;75.02
4024;BME280;2026;51.002;13.668;2022-12-18T08:03:01;100835.72;;;-11.05;74.42
4024;BME280;2026;51.002;13.668;2022-12-18T08:08:04;100831.19;;;-10.90;73.48
4024;BME280;2026;51.002;13.668;2022-12-18T08:13:07;100825.44;;;-10.99;74.37
4024;BME280;2026;51.002;13.668;2022-12-18T08:18:12;100815.69;;;-11.17;74.71
4024;BME280;2026;51.002;13.668;2022-12-18T08:23:15;100815.13;;;-10.89;74.08
4024;BME280;2026;51.002;13.668;2022-12-18T08:28:18;100818.28;;;-10.78;73.83
4024;BME280;2026;51.002;13.668;2022-12-18T08:33:22;100824.50;;;-10.52;73.38
4024;BME280;2026;51.002;13.668;2022-12-18T08:38:26;100824.19;;;-10.36;72.61
4024;BME280;2026;51.002;13.668;2022-12-18T08:43:28;100825.94;;;-10.38;73.03
4024;BME280;2026;51.002;13.668;2022-12-18T08:48:52;100825.63;;;-10.26;71.97
4024;BME280;2026;51.002;13.668;2022-12-18T08:53:55;100829.91;;;-10.28;73.62
4024;BME280;2026;51.002;13.668;2022-12-18T08:58:58;100835.38;;;-10.07;73.54
4024;BME280;2026;51.002;13.668;2022-12-18T09:04:03;100837.53;;;-9.90;73.27
4024;BME280;2026;51.002;13.668;2022-12-18T09:09:09;100816.13;;;-9.78;73.45
4024;BME280;2026;51.002;13.668;2022-12-18T09:14:12;100829.81;;;-9.85;74.06
4024;BME280;2026;51.002;13.668;2022-12-18T09:19:16;100860.44;;;-9.57;73.38
4024;BME280;2026;51.002;13.668;2022-12-18T09:24:19;100864.81;;;-9.62;73.99
4024;BME280;2026;51.002;13.668;2022-12-18T09:29:22;100870.22;;;-9.76;76.02
4024;BME280;2026;51.002;13.668;2022-12-18T09:34:26;100862.44;;;-9.35;76.63
4024;BME280;2026;51.002;13.668;2022-12-18T09:39:29;100863.09;;;-8.95;75.56
4024;BME280;2026;51.002;13.668;2022-12-18T09:44:36;100849.53;;;-8.64;75.74
4024;BME280;2026;51.002;13.668;2022-12-18T09:49:49;100849.81;;;-8.43;75.22
4024;BME280;2026;51.002;13.668;2022-12-18T09:54:56;100832.31;;;-8.26;75.66
4024;BME280;2026;51.002;13.668;2022-12-18T10:00:06;100829.47;;;-7.88;76.77
4024;BME280;2026;51.002;13.668;2022-12-18T10:05:20;100827.16;;;-7.69;75.01
4024;BME280;2026;51.002;13.668;2022-12-18T10:10:36;100816.84;;;-7.91;76.38
4024;BME280;2026;51.002;13.668;2022-12-18T10:15:48;100804.00;;;-7.61;76.51
4024;BME280;2026;51.002;13.668;2022-12-18T10:21:01;100796.44;;;-7.64;76.39
4024;BME280;2026;51.002;13.668;2022-12-18T10:26:10;100776.91;;;-7.40;76.03
4024;BME280;2026;51.002;13.668;2022-12-18T10:31:17;100778.94;;;-7.00;75.00
4024;BME280;2026;51.002;13.668;2022-12-18T10:36:23;100767.09;;;-7.01;75.34
4024;BME280;2026;51.002;13.668;2022-12-18T10:41:27;100754.69;;;-6.64;74.41
4024;BME280;2026;51.002;13.668;2022-12-18T10:46:32;100739.78;;;-6.31;74.66
4024;BME280;2026;51.002;13.668;2022-12-18T10:51:37;100754.56;;;-6.39;75.00
4024;BME280;2026;51.002;13.668;2022-12-18T10:56:41;100746.47;;;-6.06;74.96
4024;BME280;2026;51.002;13.668;2022-12-18T11:01:47;100737.28;;;-5.89;74.56
4024;BME280;2026;51.002;13.668;2022-12-18T11:06:57;100757.03;;;-6.15;75.19
4024;BME280;2026;51.002;13.668;2022-12-18T11:12:02;100740.84;;;-5.72;74.98
4024;BME280;2026;51.002;13.668;2022-12-18T11:17:18;100742.25;;;-6.07;77.28
4024;BME280;2026;51.002;13.668;2022-12-18T11:22:29;100714.03;;;-5.62;75.90
4024;BME280;2026;51.002;13.668;2022-12-18T11:27:33;100714.75;;;-5.39;75.53
4024;BME280;2026;51.002;13.668;2022-12-18T11:32:37;100712.88;;;-5.55;75.98
4024;BME280;2026;51.002;13.668;2022-12-18T11:37:47;100705.41;;;-5.80;77.15
4024;BME280;2026;51.002;13.668;2022-12-18T11:42:55;100708.22;;;-5.66;77.35
4024;BME280;2026;51.002;13.668;2022-12-18T11:48:06;100712.22;;;-5.60;78.20
4024;BME280;2026;51.002;13.668;2022-12-18T11:53:17;100713.47;;;-5.50;78.98
4024;BME280;2026;51.002;13.668;2022-12-18T11:58:31;100722.69;;;-5.45;77.70
4024;BME280;2026;51.002;13.668;2022-12-18T12:04:00;100728.69;;;-5.47;78.31
4024;BME280;2026;51.002;13.668;2022-12-18T12:09:13;100724.13;;;-5.40;78.66
4024;BME280;2026;51.002;13.668;2022-12-18T12:14:39;100738.66;;;-5.40;79.06
4024;BME280;2026;51.002;13.668;2022-12-18T12:19:52;100736.19;;;-5.23;79.02
4024;BME280;2026;51.002;13.668;2022-12-18T12:25:08;100742.22;;;-5.44;79.01
4024;BME280;2026;51.002;13.668;2022-12-18T12:30:20;100744.13;;;-5.29;78.86
4024;BME280;2026;51.002;13.668;2022-12-18T12:35:37;100749.44;;;-5.34;79.31
4024;BME280;2026;51.002;13.668;2022-12-18T12:40:51;100758.72;;;-5.31;79.06
4024;BME280;2026;51.002;13.668;2022-12-18T12:46:04;100762.63;;;-5.43;79.65
4024;BME280;2026;51.002;13.668;2022-12-18T12:51:12;100733.09;;;-5.50;80.85
4024;BME280;2026;51.002;13.668;2022-12-18T12:56:20;100734.88;;;-5.12;80.37
4024;BME280;2026;51.002;13.668;2022-12-18T13:01:30;100736.16;;;-4.84;79.65
4024;BME280;2026;51.002;13.668;2022-12-18T13:06:42;100729.38;;;-4.66;78.80
4024;BME280;2026;51.002;13.668;2022-12-18T13:11:49;100735.03;;;-4.59;78.07
4024;BME280;2026;51.002;13.668;2022-12-18T13:17:24;100727.00;;;-4.71;78.30
4024;BME280;2026;51.002;13.668;2022-12-18T13:22:34;100715.13;;;-4.72;78.62
4024;BME280;2026;51.002;13.668;2022-12-18T13:27:59;100732.56;;;-4.99;79.09
4024;BME280;2026;51.002;13.668;2022-12-18T13:39:22;100734.41;;;-5.41;79.82
4024;BME280;2026;51.002;13.668;2022-12-18T13:44:48;100727.47;;;-5.18;79.63
4024;BME280;2026;51.002;13.668;2022-12-18T13:49:51;100716.72;;;-5.06;78.78
4024;BME280;2026;51.002;13.668;2022-12-18T13:54:56;100733.25;;;-4.76;78.22
4024;BME280;2026;51.002;13.668;2022-12-18T14:00:24;100730.47;;;-4.72;77.71
4024;BME280;2026;51.002;13.668;2022-12-18T14:05:29;100731.06;;;-4.84;77.70
4024;BME280;2026;51.002;13.668;2022-12-18T14:10:33;100725.94;;;-4.84;77.46
4024;BME280;2026;51.002;13.668;2022-12-18T14:15:51;100726.00;;;-4.86;77.25
4024;BME280;2026;51.002;13.668;2022-12-18T14:20:58;100725.59;;;-4.96;77.51
4024;BME280;2026;51.002;13.668;2022-12-18T14:26:17;100723.41;;;-5.03;78.16
4024;BME280;2026;51.002;13.668;2022-12-18T14:31:25;100707.38;;;-5.07;77.83
4024;BME280;2026;51.002;13.668;2022-12-18T14:36:29;100684.63;;;-5.13;78.03
4024;BME280;2026;51.002;13.668;2022-12-18T14:41:32;100707.78;;;-5.36;78.96
4024;BME280;2026;51.002;13.668;2022-12-18T14:46:38;100694.56;;;-5.45;78.94
4024;BME280;2026;51.002;13.668;2022-12-18T14:51:47;100696.22;;;-5.44;78.79
4024;BME280;2026;51.002;13.668;2022-12-18T14:56:54;100699.94;;;-5.52;78.79
4024;BME280;2026;51.002;13.668;2022-12-18T15:02:03;100700.84;;;-5.53;78.56
4024;BME280;2026;51.002;13.668;2022-12-18T15:07:12;100704.69;;;-5.63;78.69
4024;BME280;2026;51.002;13.668;2022-12-18T15:12:24;100699.09;;;-5.71;78.57
4024;BME280;2026;51.002;13.668;2022-12-18T15:17:30;100708.41;;;-5.91;78.75
4024;BME280;2026;51.002;13.668;2022-12-18T15:22:34;100698.19;;;-5.91;78.60
4024;BME280;2026;51.002;13.668;2022-12-18T15:27:38;100696.13;;;-6.04;78.63
4024;BME280;2026;51.002;13.668;2022-12-18T15:32:42;100682.25;;;-6.17;78.78
4024;BME280;2026;51.002;13.668;2022-12-18T15:37:46;100685.34;;;-6.31;78.90
4024;BME280;2026;51.002;13.668;2022-12-18T15:42:52;100689.59;;;-6.52;78.87
4024;BME280;2026;51.002;13.668;2022-12-18T15:48:20;100693.34;;;-6.61;79.67
4024;BME280;2026;51.002;13.668;2022-12-18T15:53:24;100692.97;;;-6.52;79.75
4024;BME280;2026;51.002;13.668;2022-12-18T15:58:28;100699.56;;;-6.46;78.63
4024;BME280;2026;51.002;13.668;2022-12-18T16:03:32;100677.53;;;-6.93;79.53
4024;BME280;2026;51.002;13.668;2022-12-18T16:08:35;100678.88;;;-6.83;80.26
4024;BME280;2026;51.002;13.668;2022-12-18T16:13:41;100673.94;;;-6.88;79.02
4024;BME280;2026;51.002;13.668;2022-12-18T16:18:45;100679.03;;;-6.88;79.03
4024;BME280;2026;51.002;13.668;2022-12-18T16:23:48;100680.25;;;-6.98;80.08
4024;BME280;2026;51.002;13.668;2022-12-18T16:28:51;100687.16;;;-7.00;80.47
4024;BME280;2026;51.002;13.668;2022-12-18T16:39:26;100678.47;;;-7.18;80.75
4024;BME280;2026;51.002;13.668;2022-12-18T16:44:29;100670.19;;;-7.23;79.99
4024;BME280;2026;51.002;13.668;2022-12-18T16:49:32;100674.44;;;-7.24;80.42
4024;BME280;2026;51.002;13.668;2022-12-18T16:54:36;100671.13;;;-7.04;80.75
4024;BME280;2026;51.002;13.668;2022-12-18T16:59:39;100660.00;;;-7.01;79.85
4024;BME280;2026;51.002;13.668;2022-12-18T17:04:43;100667.34;;;-7.16;80.55
4024;BME280;2026;51.002;13.668;2022-12-18T17:09:48;100659.16;;;-7.02;82.07
4024;BME280;2026;51.002;13.668;2022-12-18T17:14:51;100643.13;;;-7.28;81.76
4024;BME280;2026;51.002;13.668;2022-12-18T17:19:54;100657.25;;;-7.19;81.58
4024;BME280;2026;51.002;13.668;2022-12-18T17:24:59;100651.84;;;-7.33;80.75
4024;BME280;2026;51.002;13.668;2022-12-18T17:30:02;100656.16;;;-7.35;80.90
4024;BME280;2026;51.002;13.668;2022-12-18T17:35:06;100638.88;;;-7.27;81.19
4024;BME280;2026;51.002;13.668;2022-12-18T17:40:10;100636.50;;;-7.32;81.26
4024;BME280;2026;51.002;13.668;2022-12-18T17:45:13;100642.00;;;-7.43;80.82
4024;BME280;2026;51.002;13.668;2022-12-18T17:50:17;100626.91;;;-7.25;80.88
4024;BME280;2026;51.002;13.668;2022-12-18T17:55:21;100620.06;;;-7.24;80.43
4024;BME280;2026;51.002;13.668;2022-12-18T18:00:24;100625.69;;;-7.38;81.10
4024;BME280;2026;51.002;13.668;2022-12-18T18:05:27;100625.47;;;-7.32;80.78
4024;BME280;2026;51.002;13.668;2022-12-18T18:10:34;100620.63;;;-7.40;81.00
4024;BME280;2026;51.002;13.668;2022-12-18T18:15:38;100618.38;;;-7.24;80.88
4024;BME280;2026;51.002;13.668;2022-12-18T18:20:41;100612.16;;;-7.17;80.30
4024;BME280;2026;51.002;13.668;2022-12-18T18:25:46;100612.69;;;-7.31;81.01
4024;BME280;2026;51.002;13.668;2022-12-18T18:30:50;100613.38;;;-7.27;80.35
4024;BME280;2026;51.002;13.668;2022-12-18T18:35:53;100606.50;;;-7.47;82.29
4024;BME280;2026;51.002;13.668;2022-12-18T18:40:58;100596.91;;;-7.18;81.97
4024;BME280;2026;51.002;13.668;2022-12-18T18:46:03;100585.53;;;-7.09;81.11
4024;BME280;2026;51.002;13.668;2022-12-18T18:51:08;100592.38;;;-7.34;82.97
4024;BME280;2026;51.002;13.668;2022-12-18T18:56:18;100585.63;;;-7.35;83.40
4024;BME280;2026;51.002;13.668;2022-12-18T19:01:42;100569.66;;;-7.16;83.22
4024;BME280;2026;51.002;13.668;2022-12-18T19:06:45;100557.91;;;-7.20;82.53
4024;BME280;2026;51.002;13.668;2022-12-18T19:11:51;100567.94;;;-7.84;85.28
4024;BME280;2026;51.002;13.668;2022-12-18T19:17:12;100544.50;;;-7.48;83.91
4024;BME280;2026;51.002;13.668;2022-12-18T19:22:15;100539.06;;;-7.38;82.91
4024;BME280;2026;51.002;13.668;2022-12-18T19:27:20;100539.41;;;-7.26;83.63
4024;BME280;2026;51.002;13.668;2022-12-18T19:32:24;100523.81;;;-7.18;85.79
4024;BME280;2026;51.002;13.668;2022-12-18T19:37:27;100500.75;;;-7.15;83.63
4024;BME280;2026;51.002;13.668;2022-12-18T19:42:31;100495.53;;;-7.12;83.67
4024;BME280;2026;51.002;13.668;2022-12-18T19:47:36;100483.59;;;-7.32;84.34
4024;BME280;2026;51.002;13.668;2022-12-18T19:52:39;100493.56;;;-7.05;85.22
4024;BME280;2026;51.002;13.668;2022-12-18T19:57:43;100482.38;;;-7.23;84.64
4024;BME280;2026;51.002;13.668;2022-12-18T20:02:46;100485.44;;;-6.92;84.35
4024;BME280;2026;51.002;13.668;2022-12-18T20:07:50;100482.34;;;-6.80;83.94
4024;BME280;2026;51.002;13.668;2022-12-18T20:12:55;100479.25;;;-6.87;84.86
4024;BME280;2026;51.002;13.668;2022-12-18T20:17:58;100476.09;;;-6.73;83.31
4024;BME280;2026;51.002;13.668;2022-12-18T20:23:02;100486.19;;;-6.69;83.37
4024;BME280;2026;51.002;13.668;2022-12-18T20:28:06;100478.84;;;-6.57;82.99
4024;BME280;2026;51.002;13.668;2022-12-18T20:33:09;100484.59;;;-6.72;83.65
4024;BME280;2026;51.002;13.668;2022-12-18T20:38:12;100472.53;;;-6.28;85.78
4024;BME280;2026;51.002;13.668;2022-12-18T20:43:18;100452.53;;;-5.99;84.81
4024;BME280;2026;51.002;13.668;2022-12-18T20:48:21;100441.34;;;-6.16;83.41
4024;BME280;2026;51.002;13.668;2022-12-18T20:53:27;100449.63;;;-6.30;83.52
4024;BME280;2026;51.002;13.668;2022-12-18T20:58:31;100446.38;;;-6.34;84.25
4024;BME280;2026;51.002;13.668;2022-12-18T21:03:35;100459.34;;;-6.19;83.87
4024;BME280;2026;51.002;13.668;2022-12-18T21:08:38;100447.34;;;-6.17;84.44
4024;BME280;2026;51.002;13.668;2022-12-18T21:13:43;100445.81;;;-6.21;84.33
4024;BME280;2026;51.002;13.668;2022-12-18T21:18:46;100442.66;;;-6.26;84.05
4024;BME280;2026;51.002;13.668;2022-12-18T21:23:49;100445.41;;;-6.12;84.24
4024;BME280;2026;51.002;13.668;2022-12-18T21:28:54;100438.91;;;-6.19;84.81
4024;BME280;2026;51.002;13.668;2022-12-18T21:33:58;100450.31;;;-6.07;85.30
4024;BME280;2026;51.002;13.668;2022-12-18T21:39:03;100440.66;;;-6.00;84.91
4024;BME280;2026;51.002;13.668;2022-12-18T21:44:09;100434.44;;;-5.95;85.05
4024;BME280;2026;51.002;13.668;2022-12-18T21:49:13;100434.09;;;-5.87;84.48
4024;BME280;2026;51.002;13.668;2022-12-18T21:54:18;100431.84;;;-5.76;84.05
4024;BME280;2026;51.002;13.668;2022-12-18T21:59:24;100408.38;;;-5.84;84.43
4024;BME280;2026;51.002;13.668;2022-12-18T22:04:28;100419.72;;;-5.90;85.25
4024;BME280;2026;51.002;13.668;2022-12-18T22:09:31;100417.50;;;-5.78;84.27
4024;BME280;2026;51.002;13.668;2022-12-18T22:14:36;100421.41;;;-5.71;84.13
4024;BME280;2026;51.002;13.668;2022-12-18T22:19:39;100408.69;;;-5.36;80.69
4024;BME280;2026;51.002;13.668;2022-12-18T22:24:44;100401.03;;;-5.02;78.39
4024;BME280;2026;51.002;13.668;2022-12-18T22:29:48;100398.59;;;-4.38;74.73
4024;BME280;2026;51.002;13.668;2022-12-18T22:35:07;100393.91;;;-4.29;73.51
4024;BME280;2026;51.002;13.668;2022-12-18T22:40:17;100388.03;;;-4.31;73.70
4024;BME280;2026;51.002;13.668;2022-12-18T22:45:27;100385.28;;;-3.96;71.45
4024;BME280;2026;51.002;13.668;2022-12-18T22:50:30;100362.44;;;-3.85;71.03
4024;BME280;2026;51.002;13.668;2022-12-18T22:55:34;100355.16;;;-3.76;69.83
4024;BME280;2026;51.002;13.668;2022-12-18T23:00:38;100346.03;;;-3.66;69.67
4024;BME280;2026;51.002;13.668;2022-12-18T23:05:41;100340.00;;;-3.65;69.29
4024;BME280;2026;51.002;13.668;2022-12-18T23:10:45;100336.19;;;-3.43;68.37
4024;BME280;2026;51.002;13.668;2022-12-18T23:15:49;100327.88;;;-3.32;67.57
4024;BME280;2026;51.002;13.668;2022-12-18T23:20:52;100314.59;;;-3.24;66.14
4024;BME280;2026;51.002;13.668;2022-12-18T23:26:00;100311.84;;;-3.36;67.08
4024;BME280;2026;51.002;13.668;2022-12-18T23:31:07;100288.78;;;-3.36;66.20
4024;BME280;2026;51.002;13.668;2022-12-18T23:36:11;100286.38;;;-3.39;67.04
4024;BME280;2026;51.002;13.668;2022-12-18T23:41:15;100272.53;;;-3.36;67.04
4024;BME280;2026;51.002;13.668;2022-12-18T23:46:23;100258.06;;;-3.37;67.44
4024;BME280;2026;51.002;13.668;2022-12-18T23:51:27;100267.69;;;-3.41;67.51
4024;BME280;2026;51.002;13.668;2022-12-18T23:56:30;100245.63;;;-3.44;67.51
